Terminal Aerodrome Forecast
Issued by NWS

Home | Current Version | Previous Version | Text Only | Print | Product List | Glossary On
Versions: 1 2 3 4 5 6 7 8 9 10 11 12 13 14 15 16 17 18 19 20 21 22 23 24 25 26 27 28 29 30 31 32 33 34 35
000
FTUS45 KBOU 280657 AAA
TAFAPA
TAF AMD
KAPA 280657Z 2807/2906 07007KT P6SM VCSH SCT030 BKN040
      TEMPO 2807/2809 -SN BKN030
     FM280900 11006KT P6SM VCFG SCT015 OVC030
      TEMPO 2809/2813 4SM -SHRASN BKN008
     FM281300 09008KT 3SM -SHRASN SCT009 BKN012 BKN040
     FM281800 09012KT 5SM -SHRA BKN025 OVC050
      TEMPO 2818/2822 3SM -SHRA BKN015 OVC030
     FM282200 09012KT 5SM -SHRA BKN020 OVC040
     FM290200 06010KT 3SM -RA BR SCT014 OVC028
      TEMPO 2902/2906 1SM -RASN BR SCT007 OVC014=

USA.gov is the U.S. government's official web portal to all federal, state and local government web resources and services.